Historical Weather Data

Kanab, UT VWS

Date ET
(Inches)
Rain
(Inches)
Temp °F
Humidity
Avg
Wind MPH
Avg
Solar Wm2
Avg
High Ave Low
08/01/2018 12:00 am 0.245 0.00 97.0 81.1 65.0 36 2.8 315
08/02/2018 12:00 am 0.216 0.00 91.0 78.1 67.0 40 2.7 282
08/03/2018 12:00 am 0.236 0.00 90.0 78.9 63.0 43 2.6 319
08/04/2018 12:00 am 0.258 0.00 95.0 80.2 65.0 36 3.1 338
08/05/2018 12:00 am 0.279 0.00 95.0 81.1 66.0 26 3.7 355
08/06/2018 12:00 am 0.270 0.00 95.0 80.3 63.0 16 2.9 361
08/07/2018 12:00 am 0.272 0.00 98.0 81.8 63.0 14 3.0 361
08/08/2018 12:00 am 0.254 0.00 99.0 82.6 63.0 20 2.5 353
08/09/2018 12:00 am 0.252 0.00 98.0 81.5 63.0 27 2.8 331
08/10/2018 12:00 am 0.210 0.00 98.0 80.9 65.0 37 1.9 299
08/11/2018 12:00 am 0.215 0.00 94.0 78.2 66.0 42 2.3 297
08/12/2018 12:00 am 0.232 0.00 94.0 77.8 57.0 41 2.8 310
08/13/2018 12:00 am 0.250 0.00 94.0 79.5 63.0 35 3.4 323
08/14/2018 12:00 am 0.227 0.00 94.0 77.2 65.0 33 2.5 318
08/15/2018 12:00 am 0.216 0.00 90.0 75.8 63.0 35 2.3 307
08/16/2018 12:00 am 0.197 0.00 87.0 77.2 66.0 42 2.7 265
08/17/2018 12:00 am 0.224 0.00 90.0 77.7 64.0 42 2.9 298
08/18/2018 12:00 am 0.250 0.00 92.0 79.3 66.0 40 3.2 330
08/19/2018 12:00 am 0.238 0.00 97.0 80.6 65.0 27 2.5 332
08/20/2018 12:00 am 0.249 0.00 94.0 81.1 68.0 26 3.2 321
08/21/2018 12:00 am 0.153 0.40 83.0 71.1 63.0 50 3.1 201
08/22/2018 12:00 am 0.079 0.50 80.0 67.1 60.0 62 1.9 109
08/23/2018 12:00 am 0.188 0.00 82.0 69.8 59.0 56 1.9 295
08/24/2018 12:00 am 0.196 0.00 83.0 71.8 59.0 50 2.5 300
08/25/2018 12:00 am 0.198 0.00 86.0 73.5 61.0 46 2.1 298
08/26/2018 12:00 am 0.215 0.00 85.0 73.1 61.0 44 3.0 308
08/27/2018 12:00 am 0.239 0.00 87.0 74.6 64.5 34 4.4 319
08/28/2018 12:00 am 0.214 0.00 87.0 71.1 56.0 21 2.4 327
08/29/2018 12:00 am 0.203 0.00 87.0 72.0 57.0 23 2.1 317
08/30/2018 12:00 am 0.216 0.00 89.0 73.7 57.0 26 2.7 316
08/31/2018 12:00 am 0.227 0.00 88.0 73.6 59.0 31 3.5 307